sensor_id;sensor_type;location;lat;lon;timestamp;pressure;altitude;pressure_sealevel;temperature;humidity
76808;BME280;65758;45.458;11.062;2023-05-10T00:01:32;100664.27;;;17.81;56.68
76808;BME280;65758;45.458;11.062;2023-05-10T00:03:58;100663.92;;;17.79;56.89
76808;BME280;65758;45.458;11.062;2023-05-10T00:06:25;100663.48;;;17.77;57.25
76808;BME280;65758;45.458;11.062;2023-05-10T00:08:52;100665.53;;;17.74;57.07
76808;BME280;65758;45.458;11.062;2023-05-10T00:11:19;100658.94;;;17.66;57.44
76808;BME280;65758;45.458;11.062;2023-05-10T00:13:48;100657.52;;;17.62;57.32
76808;BME280;65758;45.458;11.062;2023-05-10T00:16:15;100662.42;;;17.61;57.02
76808;BME280;65758;45.458;11.062;2023-05-10T00:18:42;100656.83;;;17.61;56.52
76808;BME280;65758;45.458;11.062;2023-05-10T00:21:08;100654.89;;;17.59;56.21
76808;BME280;65758;45.458;11.062;2023-05-10T00:23:35;100655.61;;;17.59;55.99
76808;BME280;65758;45.458;11.062;2023-05-10T00:26:02;100654.27;;;17.57;55.41
76808;BME280;65758;45.458;11.062;2023-05-10T00:28:28;100649.60;;;17.54;54.91
76808;BME280;65758;45.458;11.062;2023-05-10T00:30:56;100648.97;;;17.47;54.83
76808;BME280;65758;45.458;11.062;2023-05-10T00:33:22;100649.70;;;17.44;55.04
76808;BME280;65758;45.458;11.062;2023-05-10T00:35:49;100648.58;;;17.42;54.52
76808;BME280;65758;45.458;11.062;2023-05-10T00:38:16;100649.51;;;17.35;53.92
76808;BME280;65758;45.458;11.062;2023-05-10T00:40:44;100650.60;;;17.29;53.93
76808;BME280;65758;45.458;11.062;2023-05-10T00:43:16;100647.49;;;17.23;53.99
76808;BME280;65758;45.458;11.062;2023-05-10T00:45:43;100645.77;;;17.17;54.16
76808;BME280;65758;45.458;11.062;2023-05-10T00:48:11;100643.27;;;17.12;54.50
76808;BME280;65758;45.458;11.062;2023-05-10T00:50:38;100643.02;;;17.04;54.20
76808;BME280;65758;45.458;11.062;2023-05-10T00:53:07;100640.19;;;17.00;54.51
76808;BME280;65758;45.458;11.062;2023-05-10T00:55:34;100639.30;;;16.95;54.19
76808;BME280;65758;45.458;11.062;2023-05-10T00:58:01;100628.49;;;16.91;54.07
76808;BME280;65758;45.458;11.062;2023-05-10T01:00:28;100619.52;;;16.88;54.25
76808;BME280;65758;45.458;11.062;2023-05-10T01:02:56;100612.87;;;16.83;54.52
76808;BME280;65758;45.458;11.062;2023-05-10T01:05:23;100608.33;;;16.81;54.82
76808;BME280;65758;45.458;11.062;2023-05-10T01:07:49;100610.20;;;16.77;54.64
76808;BME280;65758;45.458;11.062;2023-05-10T01:10:16;100612.17;;;16.73;55.27
76808;BME280;65758;45.458;11.062;2023-05-10T01:12:45;100616.61;;;16.67;54.90
76808;BME280;65758;45.458;11.062;2023-05-10T01:15:15;100617.81;;;16.60;54.88
76808;BME280;65758;45.458;11.062;2023-05-10T01:17:44;100612.00;;;16.52;55.19
76808;BME280;65758;45.458;11.062;2023-05-10T01:20:12;100606.55;;;16.47;55.08
76808;BME280;65758;45.458;11.062;2023-05-10T01:33:01;100604.76;;;16.30;54.88
76808;BME280;65758;45.458;11.062;2023-05-10T01:39:11;100590.70;;;16.24;55.31
76808;BME280;65758;45.458;11.062;2023-05-10T01:41:45;100594.55;;;16.23;55.38
76808;BME280;65758;45.458;11.062;2023-05-10T01:44:23;100592.93;;;16.20;55.46
76808;BME280;65758;45.458;11.062;2023-05-10T01:46:59;100589.94;;;16.16;55.88
76808;BME280;65758;45.458;11.062;2023-05-10T01:49:34;100588.71;;;16.15;55.86
76808;BME280;65758;45.458;11.062;2023-05-10T01:52:10;100591.05;;;16.08;56.31
76808;BME280;65758;45.458;11.062;2023-05-10T01:54:44;100592.22;;;16.02;56.29
76808;BME280;65758;45.458;11.062;2023-05-10T01:57:16;100589.92;;;15.96;56.97
76808;BME280;65758;45.458;11.062;2023-05-10T01:59:45;100590.23;;;15.93;57.29
76808;BME280;65758;45.458;11.062;2023-05-10T02:02:14;100590.70;;;15.90;57.61
76808;BME280;65758;45.458;11.062;2023-05-10T02:04:45;100590.02;;;15.87;57.83
76808;BME280;65758;45.458;11.062;2023-05-10T02:07:14;100589.54;;;15.80;58.09
76808;BME280;65758;45.458;11.062;2023-05-10T02:09:44;100594.97;;;15.77;58.35
76808;BME280;65758;45.458;11.062;2023-05-10T02:12:15;100593.34;;;15.79;58.94
76808;BME280;65758;45.458;11.062;2023-05-10T02:14:43;100596.89;;;15.82;58.54
76808;BME280;65758;45.458;11.062;2023-05-10T02:17:11;100604.55;;;15.83;58.44
76808;BME280;65758;45.458;11.062;2023-05-10T02:19:40;100605.94;;;15.84;58.66
76808;BME280;65758;45.458;11.062;2023-05-10T02:22:09;100607.15;;;15.84;58.98
76808;BME280;65758;45.458;11.062;2023-05-10T02:24:37;100608.17;;;15.86;59.07
76808;BME280;65758;45.458;11.062;2023-05-10T02:27:06;100608.06;;;15.86;58.89
76808;BME280;65758;45.458;11.062;2023-05-10T02:29:35;100609.04;;;15.85;59.08
76808;BME280;65758;45.458;11.062;2023-05-10T02:32:03;100608.79;;;15.81;59.30
76808;BME280;65758;45.458;11.062;2023-05-10T02:34:31;100609.54;;;15.77;59.60
76808;BME280;65758;45.458;11.062;2023-05-10T02:36:59;100608.30;;;15.75;59.60
76808;BME280;65758;45.458;11.062;2023-05-10T02:39:27;100610.30;;;15.74;59.73
76808;BME280;65758;45.458;11.062;2023-05-10T02:41:56;100608.15;;;15.75;59.95
76808;BME280;65758;45.458;11.062;2023-05-10T02:44:26;100609.84;;;15.78;60.37
76808;BME280;65758;45.458;11.062;2023-05-10T02:46:54;100606.95;;;15.78;60.30
76808;BME280;65758;45.458;11.062;2023-05-10T02:49:22;100608.04;;;15.76;60.56
76808;BME280;65758;45.458;11.062;2023-05-10T02:51:51;100612.54;;;15.79;60.67
76808;BME280;65758;45.458;11.062;2023-05-10T02:54:27;100607.10;;;15.83;60.99
76808;BME280;65758;45.458;11.062;2023-05-10T02:57:00;100611.16;;;15.87;61.37
76808;BME280;65758;45.458;11.062;2023-05-10T02:59:29;100609.11;;;15.94;61.52
76808;BME280;65758;45.458;11.062;2023-05-10T03:01:56;100601.97;;;15.98;61.01
76808;BME280;65758;45.458;11.062;2023-05-10T03:04:22;100608.11;;;16.01;61.10
76808;BME280;65758;45.458;11.062;2023-05-10T03:06:50;100607.20;;;16.04;61.65
76808;BME280;65758;45.458;11.062;2023-05-10T03:09:17;100602.79;;;16.07;61.63
76808;BME280;65758;45.458;11.062;2023-05-10T03:17:22;100603.61;;;16.04;61.01
76808;BME280;65758;45.458;11.062;2023-05-10T03:19:55;100604.85;;;16.02;61.65
76808;BME280;65758;45.458;11.062;2023-05-10T03:22:31;100605.91;;;16.02;61.96
76808;BME280;65758;45.458;11.062;2023-05-10T03:25:00;100604.64;;;16.01;62.35
76808;BME280;65758;45.458;11.062;2023-05-10T03:27:34;100600.88;;;16.00;62.18
76808;BME280;65758;45.458;11.062;2023-05-10T03:30:02;100601.30;;;15.99;62.23
76808;BME280;65758;45.458;11.062;2023-05-10T03:32:31;100599.30;;;15.96;62.38
76808;BME280;65758;45.458;11.062;2023-05-10T03:35:00;100600.39;;;15.94;62.61
76808;BME280;65758;45.458;11.062;2023-05-10T03:37:27;100596.33;;;15.90;62.27
76808;BME280;65758;45.458;11.062;2023-05-10T03:39:54;100600.95;;;15.86;62.30
76808;BME280;65758;45.458;11.062;2023-05-10T03:42:21;100601.52;;;15.83;62.69
76808;BME280;65758;45.458;11.062;2023-05-10T03:44:48;100596.10;;;15.81;62.71
76808;BME280;65758;45.458;11.062;2023-05-10T03:47:16;100593.13;;;15.80;62.79
76808;BME280;65758;45.458;11.062;2023-05-10T03:49:43;100588.24;;;15.78;62.90
76808;BME280;65758;45.458;11.062;2023-05-10T03:52:10;100581.98;;;15.75;63.44
76808;BME280;65758;45.458;11.062;2023-05-10T03:54:37;100583.88;;;15.74;63.59
76808;BME280;65758;45.458;11.062;2023-05-10T03:57:04;100585.59;;;15.76;64.11
76808;BME280;65758;45.458;11.062;2023-05-10T03:59:31;100582.35;;;15.79;63.84
76808;BME280;65758;45.458;11.062;2023-05-10T04:01:58;100581.70;;;15.81;63.53
76808;BME280;65758;45.458;11.062;2023-05-10T04:04:25;100581.92;;;15.82;63.66
76808;BME280;65758;45.458;11.062;2023-05-10T04:06:52;100590.13;;;15.86;63.65
76808;BME280;65758;45.458;11.062;2023-05-10T04:09:18;100590.63;;;15.88;63.81
76808;BME280;65758;45.458;11.062;2023-05-10T04:11:45;100595.92;;;15.87;62.80
76808;BME280;65758;45.458;11.062;2023-05-10T04:14:12;100594.34;;;15.82;63.49
76808;BME280;65758;45.458;11.062;2023-05-10T04:16:38;100591.84;;;15.79;63.33
76808;BME280;65758;45.458;11.062;2023-05-10T04:19:05;100591.48;;;15.75;63.17
76808;BME280;65758;45.458;11.062;2023-05-10T04:21:32;100590.67;;;15.72;63.64
76808;BME280;65758;45.458;11.062;2023-05-10T04:23:58;100595.79;;;15.69;63.80
76808;BME280;65758;45.458;11.062;2023-05-10T04:26:25;100586.77;;;15.65;63.34
76808;BME280;65758;45.458;11.062;2023-05-10T04:28:52;100586.23;;;15.62;63.54
76808;BME280;65758;45.458;11.062;2023-05-10T04:31:18;100586.08;;;15.64;63.78
76808;BME280;65758;45.458;11.062;2023-05-10T04:33:45;100579.77;;;15.66;63.74
76808;BME280;65758;45.458;11.062;2023-05-10T04:36:12;100580.55;;;15.67;63.79
76808;BME280;65758;45.458;11.062;2023-05-10T04:38:39;100582.26;;;15.67;63.89
76808;BME280;65758;45.458;11.062;2023-05-10T04:41:09;100581.60;;;15.66;63.98
76808;BME280;65758;45.458;11.062;2023-05-10T04:43:37;100583.39;;;15.64;63.60
76808;BME280;65758;45.458;11.062;2023-05-10T04:46:05;100584.70;;;15.61;63.32
76808;BME280;65758;45.458;11.062;2023-05-10T04:48:32;100585.65;;;15.57;63.42
76808;BME280;65758;45.458;11.062;2023-05-10T04:50:59;100586.73;;;15.54;63.65
76808;BME280;65758;45.458;11.062;2023-05-10T04:53:26;100586.19;;;15.45;63.12
76808;BME280;65758;45.458;11.062;2023-05-10T04:55:53;100585.63;;;15.33;63.27
76808;BME280;65758;45.458;11.062;2023-05-10T04:58:19;100593.10;;;15.18;63.62
76808;BME280;65758;45.458;11.062;2023-05-10T05:00:46;100591.75;;;15.04;63.77
76808;BME280;65758;45.458;11.062;2023-05-10T05:03:13;100590.54;;;14.99;64.65
76808;BME280;65758;45.458;11.062;2023-05-10T05:05:40;100592.80;;;15.05;65.22
76808;BME280;65758;45.458;11.062;2023-05-10T05:08:07;100593.11;;;15.13;65.05
76808;BME280;65758;45.458;11.062;2023-05-10T05:10:33;100594.88;;;15.19;64.89
76808;BME280;65758;45.458;11.062;2023-05-10T05:13:00;100595.82;;;15.19;64.36
76808;BME280;65758;45.458;11.062;2023-05-10T05:15:27;100597.27;;;15.10;65.09
76808;BME280;65758;45.458;11.062;2023-05-10T05:17:54;100594.36;;;15.07;65.03
76808;BME280;65758;45.458;11.062;2023-05-10T05:20:21;100596.88;;;15.06;65.02
76808;BME280;65758;45.458;11.062;2023-05-10T05:22:47;100597.46;;;15.03;64.59
76808;BME280;65758;45.458;11.062;2023-05-10T05:25:14;100597.30;;;15.00;65.33
76808;BME280;65758;45.458;11.062;2023-05-10T05:27:41;100601.22;;;15.04;65.78
76808;BME280;65758;45.458;11.062;2023-05-10T05:30:08;100602.84;;;15.11;65.55
76808;BME280;65758;45.458;11.062;2023-05-10T05:32:35;100603.69;;;15.18;65.49
76808;BME280;65758;45.458;11.062;2023-05-10T05:35:02;100605.27;;;15.21;64.97
76808;BME280;65758;45.458;11.062;2023-05-10T05:37:29;100607.63;;;15.22;65.08
76808;BME280;65758;45.458;11.062;2023-05-10T05:39:55;100605.77;;;15.22;65.17
76808;BME280;65758;45.458;11.062;2023-05-10T05:42:22;100604.71;;;15.22;64.65
76808;BME280;65758;45.458;11.062;2023-05-10T05:44:49;100602.90;;;15.22;65.09
76808;BME280;65758;45.458;11.062;2023-05-10T05:47:16;100607.44;;;15.24;65.12
76808;BME280;65758;45.458;11.062;2023-05-10T05:49:42;100606.12;;;15.26;65.33
76808;BME280;65758;45.458;11.062;2023-05-10T05:52:12;100609.27;;;15.26;64.64
76808;BME280;65758;45.458;11.062;2023-05-10T05:54:39;100617.65;;;15.25;64.85
76808;BME280;65758;45.458;11.062;2023-05-10T05:57:06;100615.30;;;15.27;65.13
76808;BME280;65758;45.458;11.062;2023-05-10T05:59:34;100616.33;;;15.31;65.18
76808;BME280;65758;45.458;11.062;2023-05-10T06:02:01;100616.80;;;15.35;64.85
76808;BME280;65758;45.458;11.062;2023-05-10T06:04:28;100612.75;;;15.38;64.96
76808;BME280;65758;45.458;11.062;2023-05-10T06:06:55;100605.40;;;15.42;65.31
76808;BME280;65758;45.458;11.062;2023-05-10T06:09:21;100612.08;;;15.41;65.08
76808;BME280;65758;45.458;11.062;2023-05-10T06:11:50;100611.40;;;15.40;64.29
76808;BME280;65758;45.458;11.062;2023-05-10T06:14:20;100616.55;;;15.38;64.26
76808;BME280;65758;45.458;11.062;2023-05-10T06:16:47;100617.52;;;15.34;64.31
76808;BME280;65758;45.458;11.062;2023-05-10T06:19:14;100618.38;;;15.32;64.67
76808;BME280;65758;45.458;11.062;2023-05-10T06:21:40;100621.91;;;15.32;64.61
76808;BME280;65758;45.458;11.062;2023-05-10T06:24:07;100623.71;;;15.30;64.63
76808;BME280;65758;45.458;11.062;2023-05-10T06:26:34;100622.11;;;15.30;64.21
76808;BME280;65758;45.458;11.062;2023-05-10T06:29:01;100619.79;;;15.30;64.17
76808;BME280;65758;45.458;11.062;2023-05-10T06:31:28;100621.39;;;15.24;64.57
76808;BME280;65758;45.458;11.062;2023-05-10T06:33:55;100621.77;;;15.23;64.40
76808;BME280;65758;45.458;11.062;2023-05-10T06:36:22;100622.36;;;15.23;64.81
76808;BME280;65758;45.458;11.062;2023-05-10T06:38:51;100620.80;;;15.24;65.02
76808;BME280;65758;45.458;11.062;2023-05-10T06:41:17;100620.14;;;15.27;64.82
76808;BME280;65758;45.458;11.062;2023-05-10T06:43:44;100618.68;;;15.28;64.53
76808;BME280;65758;45.458;11.062;2023-05-10T06:46:11;100618.19;;;15.29;64.34
76808;BME280;65758;45.458;11.062;2023-05-10T06:48:37;100618.40;;;15.28;64.44
76808;BME280;65758;45.458;11.062;2023-05-10T06:51:04;100616.42;;;15.28;64.66
76808;BME280;65758;45.458;11.062;2023-05-10T06:53:31;100614.95;;;15.30;65.26
76808;BME280;65758;45.458;11.062;2023-05-10T06:55:58;100618.82;;;15.32;65.32
76808;BME280;65758;45.458;11.062;2023-05-10T06:58:24;100617.71;;;15.32;65.35
76808;BME280;65758;45.458;11.062;2023-05-10T07:00:51;100614.60;;;15.28;65.22
76808;BME280;65758;45.458;11.062;2023-05-10T07:03:18;100611.73;;;15.29;65.36
76808;BME280;65758;45.458;11.062;2023-05-10T07:05:45;100612.61;;;15.35;65.47
76808;BME280;65758;45.458;11.062;2023-05-10T07:08:13;100614.38;;;15.40;65.40
76808;BME280;65758;45.458;11.062;2023-05-10T07:10:40;100610.43;;;15.43;65.39
76808;BME280;65758;45.458;11.062;2023-05-10T07:13:06;100613.91;;;15.45;65.81
76808;BME280;65758;45.458;11.062;2023-05-10T07:15:33;100616.95;;;15.44;65.67
76808;BME280;65758;45.458;11.062;2023-05-10T07:18:00;100620.39;;;15.41;65.31
76808;BME280;65758;45.458;11.062;2023-05-10T07:20:27;100623.10;;;15.36;65.38
76808;BME280;65758;45.458;11.062;2023-05-10T07:22:54;100623.86;;;15.30;65.74
76808;BME280;65758;45.458;11.062;2023-05-10T07:25:21;100625.97;;;15.28;65.83
76808;BME280;65758;45.458;11.062;2023-05-10T07:27:47;100624.83;;;15.26;66.11
76808;BME280;65758;45.458;11.062;2023-05-10T07:30:15;100623.05;;;15.26;66.07
76808;BME280;65758;45.458;11.062;2023-05-10T07:32:41;100627.48;;;15.27;66.18
76808;BME280;65758;45.458;11.062;2023-05-10T07:35:08;100627.11;;;15.28;66.46
76808;BME280;65758;45.458;11.062;2023-05-10T07:37:35;100627.83;;;15.29;66.72
76808;BME280;65758;45.458;11.062;2023-05-10T07:40:06;100630.60;;;15.30;66.58
76808;BME280;65758;45.458;11.062;2023-05-10T07:42:33;100631.74;;;15.29;66.28
76808;BME280;65758;45.458;11.062;2023-05-10T07:45:00;100636.77;;;15.27;66.35
76808;BME280;65758;45.458;11.062;2023-05-10T07:47:26;100638.36;;;15.28;66.45
76808;BME280;65758;45.458;11.062;2023-05-10T07:49:53;100640.52;;;15.29;66.68
76808;BME280;65758;45.458;11.062;2023-05-10T07:52:20;100642.39;;;15.29;66.58
76808;BME280;65758;45.458;11.062;2023-05-10T07:54:49;100647.30;;;15.29;66.51
76808;BME280;65758;45.458;11.062;2023-05-10T07:57:17;100650.20;;;15.29;66.77
76808;BME280;65758;45.458;11.062;2023-05-10T07:59:44;100652.73;;;15.31;66.69
76808;BME280;65758;45.458;11.062;2023-05-10T08:02:11;100653.75;;;15.35;66.99
76808;BME280;65758;45.458;11.062;2023-05-10T08:04:38;100656.64;;;15.36;66.57
76808;BME280;65758;45.458;11.062;2023-05-10T08:07:05;100654.84;;;15.34;66.47
76808;BME280;65758;45.458;11.062;2023-05-10T08:09:31;100661.52;;;15.33;66.96
76808;BME280;65758;45.458;11.062;2023-05-10T08:11:58;100660.52;;;15.34;66.99
76808;BME280;65758;45.458;11.062;2023-05-10T08:14:28;100663.34;;;15.33;66.99
76808;BME280;65758;45.458;11.062;2023-05-10T08:16:55;100664.05;;;15.33;67.05
76808;BME280;65758;45.458;11.062;2023-05-10T08:19:22;100668.18;;;15.32;67.13
76808;BME280;65758;45.458;11.062;2023-05-10T08:21:49;100668.30;;;15.30;66.90
76808;BME280;65758;45.458;11.062;2023-05-10T08:24:16;100665.21;;;15.28;67.28
76808;BME280;65758;45.458;11.062;2023-05-10T08:26:42;100668.82;;;15.26;66.98
76808;BME280;65758;45.458;11.062;2023-05-10T08:29:09;100670.70;;;15.27;67.35
76808;BME280;65758;45.458;11.062;2023-05-10T08:31:36;100673.64;;;15.33;67.38
76808;BME280;65758;45.458;11.062;2023-05-10T08:34:03;100671.92;;;15.37;67.65
76808;BME280;65758;45.458;11.062;2023-05-10T08:36:30;100675.38;;;15.40;67.56
76808;BME280;65758;45.458;11.062;2023-05-10T08:38:56;100675.60;;;15.42;67.92
76808;BME280;65758;45.458;11.062;2023-05-10T08:41:24;100672.23;;;15.46;67.73
76808;BME280;65758;45.458;11.062;2023-05-10T08:43:53;100677.38;;;15.47;67.72
76808;BME280;65758;45.458;11.062;2023-05-10T08:46:21;100678.04;;;15.49;67.89
76808;BME280;65758;45.458;11.062;2023-05-10T08:48:50;100674.55;;;15.50;67.52
76808;BME280;65758;45.458;11.062;2023-05-10T08:51:19;100679.55;;;15.52;67.11
76808;BME280;65758;45.458;11.062;2023-05-10T08:53:48;100680.21;;;15.52;67.61
76808;BME280;65758;45.458;11.062;2023-05-10T08:56:15;100680.31;;;15.56;67.66
76808;BME280;65758;45.458;11.062;2023-05-10T08:58:42;100678.94;;;15.62;67.72
76808;BME280;65758;45.458;11.062;2023-05-10T09:01:09;100678.83;;;15.64;67.13
76808;BME280;65758;45.458;11.062;2023-05-10T09:03:38;100680.22;;;15.63;66.66
76808;BME280;65758;45.458;11.062;2023-05-10T09:06:06;100683.02;;;15.64;66.81
76808;BME280;65758;45.458;11.062;2023-05-10T09:08:33;100686.60;;;15.68;66.90
76808;BME280;65758;45.458;11.062;2023-05-10T09:11:00;100685.82;;;15.68;66.84
76808;BME280;65758;45.458;11.062;2023-05-10T09:13:28;100684.16;;;15.67;66.58
76808;BME280;65758;45.458;11.062;2023-05-10T09:15:54;100685.13;;;15.65;66.47
76808;BME280;65758;45.458;11.062;2023-05-10T09:18:24;100684.95;;;15.64;66.19
76808;BME280;65758;45.458;11.062;2023-05-10T09:20:54;100682.62;;;15.62;66.54
76808;BME280;65758;45.458;11.062;2023-05-10T09:23:20;100679.57;;;15.59;66.10
76808;BME280;65758;45.458;11.062;2023-05-10T09:25:47;100675.48;;;15.54;65.90
76808;BME280;65758;45.458;11.062;2023-05-10T09:28:14;100670.05;;;15.44;65.49
76808;BME280;65758;45.458;11.062;2023-05-10T09:30:41;100670.77;;;15.33;65.86
76808;BME280;65758;45.458;11.062;2023-05-10T09:33:09;100669.88;;;15.22;66.02
76808;BME280;65758;45.458;11.062;2023-05-10T09:35:35;100671.81;;;15.18;66.74
76808;BME280;65758;45.458;11.062;2023-05-10T09:38:04;100672.21;;;15.14;65.64
76808;BME280;65758;45.458;11.062;2023-05-10T09:40:31;100668.88;;;15.01;65.86
76808;BME280;65758;45.458;11.062;2023-05-10T09:43:06;100665.60;;;14.90;66.18
76808;BME280;65758;45.458;11.062;2023-05-10T09:45:35;100671.02;;;14.86;66.58
76808;BME280;65758;45.458;11.062;2023-05-10T09:48:04;100667.43;;;14.87;67.10
76808;BME280;65758;45.458;11.062;2023-05-10T09:50:32;100668.09;;;14.96;66.98
76808;BME280;65758;45.458;11.062;2023-05-10T09:53:02;100666.73;;;15.07;66.79
76808;BME280;65758;45.458;11.062;2023-05-10T09:58:02;100663.94;;;15.32;67.20
76808;BME280;65758;45.458;11.062;2023-05-10T10:00:34;100662.35;;;15.40;67.74
76808;BME280;65758;45.458;11.062;2023-05-10T10:03:02;100663.05;;;15.48;67.39
76808;BME280;65758;45.458;11.062;2023-05-10T10:07:57;100657.64;;;15.68;68.03
76808;BME280;65758;45.458;11.062;2023-05-10T10:10:25;100648.61;;;15.77;68.04
76808;BME280;65758;45.458;11.062;2023-05-10T10:12:53;100654.56;;;15.85;66.93
76808;BME280;65758;45.458;11.062;2023-05-10T10:15:21;100651.00;;;15.88;67.20
76808;BME280;65758;45.458;11.062;2023-05-10T10:17:49;100652.63;;;15.96;67.68
76808;BME280;65758;45.458;11.062;2023-05-10T10:20:18;100650.10;;;16.06;67.49
76808;BME280;65758;45.458;11.062;2023-05-10T10:22:46;100651.51;;;16.17;67.22
76808;BME280;65758;45.458;11.062;2023-05-10T10:25:18;100654.17;;;16.27;66.90
76808;BME280;65758;45.458;11.062;2023-05-10T10:35:43;100655.36;;;16.42;66.05
76808;BME280;65758;45.458;11.062;2023-05-10T10:38:13;100648.22;;;16.39;65.15
76808;BME280;65758;45.458;11.062;2023-05-10T10:40:40;100650.61;;;16.34;65.07
76808;BME280;65758;45.458;11.062;2023-05-10T10:43:23;100649.79;;;16.24;65.28
76808;BME280;65758;45.458;11.062;2023-05-10T10:48:36;100648.23;;;16.05;64.87
76808;BME280;65758;45.458;11.062;2023-05-10T10:51:02;100647.20;;;16.01;65.47
76808;BME280;65758;45.458;11.062;2023-05-10T10:53:29;100646.44;;;15.96;65.35
76808;BME280;65758;45.458;11.062;2023-05-10T10:56:11;100637.60;;;15.87;65.15
76808;BME280;65758;45.458;11.062;2023-05-10T10:58:39;100638.45;;;15.76;65.84
76808;BME280;65758;45.458;11.062;2023-05-10T11:01:17;100636.69;;;15.65;65.54
76808;BME280;65758;45.458;11.062;2023-05-10T11:06:34;100632.07;;;15.34;65.68
76808;BME280;65758;45.458;11.062;2023-05-10T11:09:06;100631.33;;;15.21;66.16
76808;BME280;65758;45.458;11.062;2023-05-10T11:11:34;100628.47;;;15.06;66.41
76808;BME280;65758;45.458;11.062;2023-05-10T11:14:06;100625.45;;;14.96;66.88
76808;BME280;65758;45.458;11.062;2023-05-10T11:16:43;100623.02;;;14.87;66.79
76808;BME280;65758;45.458;11.062;2023-05-10T11:19:13;100630.49;;;14.76;67.57
76808;BME280;65758;45.458;11.062;2023-05-10T11:21:49;100625.55;;;14.68;67.92
76808;BME280;65758;45.458;11.062;2023-05-10T11:24:18;100629.14;;;14.65;67.98
76808;BME280;65758;45.458;11.062;2023-05-10T11:26:45;100628.25;;;14.60;68.36
76808;BME280;65758;45.458;11.062;2023-05-10T11:29:13;100621.84;;;14.58;68.65
76808;BME280;65758;45.458;11.062;2023-05-10T11:31:44;100622.14;;;14.57;68.80
76808;BME280;65758;45.458;11.062;2023-05-10T11:34:15;100618.67;;;14.57;68.91
76808;BME280;65758;45.458;11.062;2023-05-10T11:36:53;100620.40;;;14.58;69.39
76808;BME280;65758;45.458;11.062;2023-05-10T11:39:21;100620.60;;;14.61;69.46
76808;BME280;65758;45.458;11.062;2023-05-10T11:41:49;100621.91;;;14.63;69.89
76808;BME280;65758;45.458;11.062;2023-05-10T11:44:16;100622.04;;;14.70;69.92
76808;BME280;65758;45.458;11.062;2023-05-10T11:46:43;100625.48;;;14.76;69.83
76808;BME280;65758;45.458;11.062;2023-05-10T11:49:10;100627.42;;;14.81;69.87
76808;BME280;65758;45.458;11.062;2023-05-10T11:51:38;100627.48;;;14.87;70.09
76808;BME280;65758;45.458;11.062;2023-05-10T11:54:07;100626.81;;;14.96;70.10
76808;BME280;65758;45.458;11.062;2023-05-10T11:56:38;100633.05;;;15.05;70.21
76808;BME280;65758;45.458;11.062;2023-05-10T11:59:06;100633.86;;;15.15;69.81
76808;BME280;65758;45.458;11.062;2023-05-10T12:01:34;100635.30;;;15.24;69.60
76808;BME280;65758;45.458;11.062;2023-05-10T12:04:02;100639.14;;;15.30;69.43
76808;BME280;65758;45.458;11.062;2023-05-10T12:06:31;100638.13;;;15.32;69.58
76808;BME280;65758;45.458;11.062;2023-05-10T12:08:59;100640.75;;;15.36;69.86
76808;BME280;65758;45.458;11.062;2023-05-10T12:11:27;100638.87;;;15.42;70.07
76808;BME280;65758;45.458;11.062;2023-05-10T12:13:55;100636.29;;;15.51;69.67
76808;BME280;65758;45.458;11.062;2023-05-10T12:16:25;100637.95;;;15.57;69.35
76808;BME280;65758;45.458;11.062;2023-05-10T12:18:55;100635.90;;;15.63;69.81
76808;BME280;65758;45.458;11.062;2023-05-10T12:21:22;100636.02;;;15.69;69.90
76808;BME280;65758;45.458;11.062;2023-05-10T12:23:51;100639.95;;;15.77;69.66
76808;BME280;65758;45.458;11.062;2023-05-10T12:26:18;100637.52;;;15.86;69.93
76808;BME280;65758;45.458;11.062;2023-05-10T12:28:48;100639.47;;;15.94;70.04
76808;BME280;65758;45.458;11.062;2023-05-10T12:31:14;100640.67;;;16.00;69.76
76808;BME280;65758;45.458;11.062;2023-05-10T12:33:43;100644.40;;;16.04;70.30
76808;BME280;65758;45.458;11.062;2023-05-10T12:36:11;100645.04;;;16.08;70.47
76808;BME280;65758;45.458;11.062;2023-05-10T12:38:43;100650.98;;;16.14;70.26
76808;BME280;65758;45.458;11.062;2023-05-10T12:41:11;100649.09;;;16.20;70.58
76808;BME280;65758;45.458;11.062;2023-05-10T12:43:39;100648.96;;;16.26;70.40
76808;BME280;65758;45.458;11.062;2023-05-10T12:46:14;100648.87;;;16.29;70.33
76808;BME280;65758;45.458;11.062;2023-05-10T12:48:43;100650.29;;;16.31;70.57
76808;BME280;65758;45.458;11.062;2023-05-10T12:51:10;100651.17;;;16.34;70.32
76808;BME280;65758;45.458;11.062;2023-05-10T12:53:39;100650.80;;;16.35;70.22
76808;BME280;65758;45.458;11.062;2023-05-10T12:56:10;100652.17;;;16.36;70.43
76808;BME280;65758;45.458;11.062;2023-05-10T12:58:36;100650.46;;;16.38;70.34
76808;BME280;65758;45.458;11.062;2023-05-10T13:01:04;100649.64;;;16.38;70.59
76808;BME280;65758;45.458;11.062;2023-05-10T13:03:32;100645.85;;;16.40;70.33
76808;BME280;65758;45.458;11.062;2023-05-10T13:05:58;100647.08;;;16.42;70.11
76808;BME280;65758;45.458;11.062;2023-05-10T13:08:25;100643.95;;;16.46;70.01
76808;BME280;65758;45.458;11.062;2023-05-10T13:10:52;100646.79;;;16.50;69.62
76808;BME280;65758;45.458;11.062;2023-05-10T13:13:19;100643.77;;;16.52;69.43
76808;BME280;65758;45.458;11.062;2023-05-10T13:15:46;100644.70;;;16.52;69.57
76808;BME280;65758;45.458;11.062;2023-05-10T13:18:12;100640.89;;;16.51;69.51
76808;BME280;65758;45.458;11.062;2023-05-10T13:20:40;100639.46;;;16.52;69.82
76808;BME280;65758;45.458;11.062;2023-05-10T13:23:06;100640.73;;;16.54;69.92